Time;durP1;ratioP1;P1;durP2;ratioP2;P2;SDS_P1;SDS_P2;PMS_P1;PMS_P2;Temp;Humidity;BMP_temperature;BMP_pressure;BME280_temperature;BME280_humidity;BME280_pressure;Samples;Min_cycle;Max_cycle;Signal;HPM_P1;HPM_P2
2021/01/13 00:00:00;;;;;;;28.77;15.67;;;1.20;99.90;;;;;;5044293;28;20570;-52
2021/01/13 00:02:27;;;;;;;28.33;13.60;;;1.10;99.90;;;;;;5045861;28;20915;-53
2021/01/13 00:04:53;;;;;;;25.90;14.40;;;1.10;99.90;;;;;;5050374;28;20489;-53
2021/01/13 00:07:20;;;;;;;27.13;13.17;;;1.10;99.90;;;;;;5054981;28;20481;-52
2021/01/13 00:09:47;;;;;;;27.60;15.75;;;1.20;99.90;;;;;;5054436;28;20841;-52
2021/01/13 00:12:14;;;;;;;27.83;14.97;;;1.40;99.90;;;;;;5055874;28;20229;-53
2021/01/13 00:14:42;;;;;;;29.87;13.70;;;1.60;99.90;;;;;;5054974;28;20529;-53
2021/01/13 00:17:09;;;;;;;26.07;13.20;;;1.60;99.90;;;;;;5055593;28;20948;-52
2021/01/13 00:19:35;;;;;;;22.47;12.10;;;1.60;99.90;;;;;;5054450;28;20455;-53
2021/01/13 00:22:02;;;;;;;26.73;13.23;;;1.70;99.90;;;;;;5055668;28;20491;-53
2021/01/13 00:24:29;;;;;;;23.20;12.10;;;1.60;99.90;;;;;;5055138;28;20504;-53
2021/01/13 00:27:01;;;;;;;20.80;11.27;;;1.50;99.90;;;;;;5055038;28;20952;-52
2021/01/13 00:29:29;;;;;;;21.00;11.83;;;1.50;99.90;;;;;;5055083;28;20481;-52
2021/01/13 00:31:56;;;;;;;19.00;9.80;;;1.50;99.90;;;;;;5055355;28;20479;-53
2021/01/13 00:34:23;;;;;;;20.70;11.90;;;1.60;99.90;;;;;;5052447;28;20874;-53
2021/01/13 00:36:49;;;;;;;20.00;10.20;;;1.50;99.90;;;;;;5052005;28;20447;-52
2021/01/13 00:39:16;;;;;;;14.03;8.27;;;1.50;99.90;;;;;;5051341;28;20477;-53
2021/01/13 00:41:42;;;;;;;21.00;9.97;;;1.60;99.90;;;;;;5051038;28;20482;-53
2021/01/13 00:44:11;;;;;;;23.60;12.63;;;1.50;99.90;;;;;;5051673;28;20451;-53
2021/01/13 00:46:39;;;;;;;23.17;12.10;;;1.40;99.90;;;;;;5051217;28;20447;-53
2021/01/13 00:49:07;;;;;;;21.17;11.73;;;1.30;99.90;;;;;;5051679;28;20529;-52
2021/01/13 00:51:35;;;;;;;17.30;8.33;;;1.40;99.90;;;;;;5051030;28;20475;-53
2021/01/13 00:54:02;;;;;;;19.00;9.47;;;1.60;99.90;;;;;;5051595;28;20810;-53
2021/01/13 00:56:29;;;;;;;16.83;8.73;;;1.60;99.90;;;;;;5050987;28;20447;-53
2021/01/13 00:58:57;;;;;;;17.17;9.60;;;1.90;99.90;;;;;;5050238;28;20957;-53
2021/01/13 01:01:26;;;;;;;20.07;10.67;;;1.70;99.90;;;;;;5051199;28;20506;-53
2021/01/13 01:03:53;;;;;;;17.83;10.33;;;1.60;99.90;;;;;;5050921;28;20546;-53
2021/01/13 01:06:20;;;;;;;19.43;10.67;;;1.60;99.90;;;;;;5051208;28;20459;-53
2021/01/13 01:08:46;;;;;;;24.20;12.17;;;1.60;99.90;;;;;;5050512;28;21059;-53
2021/01/13 01:11:15;;;;;;;22.13;10.37;;;1.40;99.90;;;;;;5051241;28;20471;-53
2021/01/13 01:13:41;;;;;;;20.40;11.20;;;1.40;99.90;;;;;;5051371;28;20447;-52
2021/01/13 01:16:08;;;;;;;24.80;11.70;;;1.50;99.90;;;;;;5051235;28;20451;-53
2021/01/13 01:18:36;;;;;;;22.73;11.30;;;1.30;99.90;;;;;;5045265;28;20477;-52
2021/01/13 01:21:02;;;;;;;21.07;11.30;;;1.30;99.90;;;;;;5050912;28;20481;-53
2021/01/13 01:23:29;;;;;;;23.13;10.90;;;1.40;99.90;;;;;;5050151;28;20458;-53
2021/01/13 01:25:55;;;;;;;23.10;12.57;;;1.30;99.90;;;;;;5050674;28;20993;-53
2021/01/13 01:28:22;;;;;;;22.00;12.03;;;1.40;99.90;;;;;;5051286;28;20506;-53
2021/01/13 01:30:48;;;;;;;21.00;11.00;;;1.40;99.90;;;;;;5050350;28;20482;-53
2021/01/13 01:33:14;;;;;;;13.57;8.20;;;1.50;99.90;;;;;;5050918;28;20458;-53
2021/01/13 01:35:42;;;;;;;15.90;9.20;;;1.50;99.90;;;;;;5050561;28;20513;-53
2021/01/13 01:38:08;;;;;;;14.53;7.43;;;1.40;99.90;;;;;;5050794;28;20448;-53
2021/01/13 01:40:35;;;;;;;16.97;8.73;;;1.60;99.90;;;;;;5050313;28;21027;-53
2021/01/13 01:43:01;;;;;;;13.40;7.87;;;1.70;99.90;;;;;;5051057;28;20521;-52
2021/01/13 01:45:30;;;;;;;14.73;8.00;;;1.60;99.90;;;;;;5050361;28;20871;-52
2021/01/13 01:48:15;;;;;;;14.40;7.43;;;1.70;99.90;;;;;;5050860;28;20451;-52
2021/01/13 01:50:45;;;;;;;12.77;8.47;;;1.50;99.90;;;;;;5050176;28;20987;-53
2021/01/13 01:53:23;;;;;;;13.23;7.87;;;1.60;99.90;;;;;;5050741;28;20451;-52
2021/01/13 01:56:04;;;;;;;12.07;7.20;;;1.80;99.90;;;;;;5050540;28;20443;-53
2021/01/13 01:58:32;;;;;;;13.50;7.63;;;1.90;99.90;;;;;;5050702;28;20481;-53
2021/01/13 02:00:59;;;;;;;12.10;6.70;;;1.90;99.90;;;;;;5050366;28;20494;-52
2021/01/13 02:03:29;;;;;;;9.97;6.10;;;1.90;99.90;;;;;;5050928;28;20447;-53
2021/01/13 02:06:02;;;;;;;13.23;6.40;;;1.90;99.90;;;;;;5050063;28;20505;-53
2021/01/13 02:08:37;;;;;;;14.23;7.07;;;1.80;99.90;;;;;;5050228;28;20460;-53
2021/01/13 02:11:04;;;;;;;11.03;6.10;;;1.80;99.90;;;;;;5050438;28;20550;-53
2021/01/13 02:13:31;;;;;;;10.47;5.90;;;1.80;99.90;;;;;;5054633;28;20944;-53
2021/01/13 02:15:58;;;;;;;9.23;5.50;;;1.80;99.90;;;;;;5054523;28;20454;-53
2021/01/13 02:18:30;;;;;;;9.17;5.67;;;1.80;99.90;;;;;;5054354;28;20454;-53
2021/01/13 02:21:03;;;;;;;9.03;5.50;;;2.00;99.90;;;;;;5054297;28;20570;-53
2021/01/13 02:23:32;;;;;;;9.10;4.77;;;2.10;99.90;;;;;;5054464;28;20444;-53
2021/01/13 02:26:42;;;;;;;7.40;5.27;;;2.00;99.90;;;;;;5054015;28;20528;-53
2021/01/13 02:29:28;;;;;;;6.40;4.53;;;1.90;99.90;;;;;;5034487;28;20444;-53
2021/01/13 02:32:04;;;;;;;7.10;5.23;;;2.00;99.90;;;;;;5034267;28;20526;-53
2021/01/13 02:34:40;;;;;;;5.37;4.27;;;1.90;99.90;;;;;;5053526;28;20978;-53
2021/01/13 02:37:37;;;;;;;6.20;4.53;;;1.80;99.90;;;;;;5054052;28;20458;-53
2021/01/13 02:40:06;;;;;;;7.50;5.40;;;2.00;99.90;;;;;;5053678;28;20451;-53
2021/01/13 02:42:37;;;;;;;6.27;4.43;;;2.00;99.90;;;;;;5052365;28;21125;-53
2021/01/13 02:45:10;;;;;;;6.03;4.50;;;2.00;99.90;;;;;;5053605;28;20539;-53
2021/01/13 02:48:11;;;;;;;6.93;4.40;;;1.90;99.90;;;;;;5053524;28;20452;-53
2021/01/13 02:50:41;;;;;;;7.17;4.70;;;1.90;99.90;;;;;;5053434;28;20471;-53
2021/01/13 02:53:46;;;;;;;6.60;4.60;;;2.00;99.90;;;;;;5034157;28;20437;-53
2021/01/13 02:56:42;;;;;;;4.70;3.50;;;2.00;99.90;;;;;;5022500;28;20537;-52
2021/01/13 02:59:14;;;;;;;7.50;5.60;;;2.20;99.90;;;;;;5046859;28;20471;-53
2021/01/13 03:01:45;;;;;;;5.73;4.53;;;2.10;99.90;;;;;;5053745;28;20520;-52
2021/01/13 03:04:13;;;;;;;5.53;4.27;;;2.00;99.90;;;;;;5053342;28;20447;-53
2021/01/13 03:06:43;;;;;;;5.90;4.30;;;2.20;99.90;;;;;;5053225;28;21084;-52
2021/01/13 03:09:11;;;;;;;6.83;4.50;;;2.30;99.90;;;;;;5053445;28;20461;-53
2021/01/13 03:11:39;;;;;;;6.40;4.97;;;2.10;99.90;;;;;;5053088;28;20471;-53
2021/01/13 03:14:16;;;;;;;6.03;4.50;;;2.00;99.90;;;;;;5053756;28;20485;-53
2021/01/13 03:17:01;;;;;;;7.60;4.20;;;2.10;99.90;;;;;;5053636;28;20462;-53
2021/01/13 03:19:51;;;;;;;7.50;5.50;;;2.00;99.90;;;;;;5036033;28;20504;-53
2021/01/13 03:22:23;;;;;;;6.57;3.80;;;2.00;99.90;;;;;;5052790;28;21064;-53
2021/01/13 03:24:55;;;;;;;7.00;4.70;;;1.90;99.90;;;;;;5052962;28;20454;-53
2021/01/13 03:27:23;;;;;;;4.93;3.80;;;2.00;99.90;;;;;;5052923;28;20542;-52
2021/01/13 03:29:53;;;;;;;6.67;4.90;;;2.00;99.90;;;;;;5052863;28;20538;-52
2021/01/13 03:32:29;;;;;;;5.40;4.13;;;2.00;99.90;;;;;;5053139;28;21112;-53
2021/01/13 03:35:06;;;;;;;6.97;4.57;;;2.10;99.90;;;;;;5052870;28;20450;-52
2021/01/13 03:37:54;;;;;;;6.60;4.77;;;2.00;99.90;;;;;;5041900;28;20534;-53
2021/01/13 03:40:22;;;;;;;7.50;4.60;;;2.10;99.90;;;;;;5052826;28;20481;-52
2021/01/13 03:42:52;;;;;;;6.70;4.47;;;2.10;99.90;;;;;;5052656;28;20903;-52
2021/01/13 03:45:27;;;;;;;8.57;4.90;;;2.10;99.90;;;;;;5052826;28;20982;-53
2021/01/13 03:48:11;;;;;;;6.50;4.20;;;2.10;99.90;;;;;;5052588;28;20538;-53
2021/01/13 03:50:41;;;;;;;11.70;5.50;;;2.10;99.90;;;;;;5032675;28;20471;-52
2021/01/13 03:53:09;;;;;;;7.50;5.10;;;2.00;99.90;;;;;;5040907;28;20451;-53
2021/01/13 03:55:38;;;;;;;6.97;4.77;;;2.20;99.90;;;;;;5052598;28;20821;-52
2021/01/13 03:58:43;;;;;;;7.63;4.63;;;2.00;99.90;;;;;;5052708;28;20458;-52
2021/01/13 04:01:40;;;;;;;7.70;5.47;;;2.10;99.90;;;;;;5052607;28;20542;-52
2021/01/13 04:04:24;;;;;;;7.90;5.27;;;2.00;99.90;;;;;;5052093;28;20448;-52
2021/01/13 04:06:59;;;;;;;6.97;5.30;;;2.20;99.90;;;;;;5051760;28;20451;-52
2021/01/13 04:09:26;;;;;;;8.60;5.20;;;2.10;99.90;;;;;;5051846;28;20537;-53
2021/01/13 04:12:16;;;;;;;7.20;5.00;;;2.20;99.90;;;;;;5052215;28;20551;-52
2021/01/13 04:14:55;;;;;;;9.17;5.30;;;1.90;99.90;;;;;;5051931;28;20968;-52
2021/01/13 04:17:23;;;;;;;7.67;4.90;;;2.10;99.90;;;;;;5052157;28;20451;-53
2021/01/13 04:19:51;;;;;;;6.53;4.13;;;2.10;99.90;;;;;;5051820;28;20455;-53
2021/01/13 04:22:19;;;;;;;8.60;5.60;;;2.20;99.90;;;;;;5052236;28;21015;-52
2021/01/13 04:24:47;;;;;;;6.80;4.50;;;2.20;99.90;;;;;;5052008;28;20530;-53
2021/01/13 04:27:16;;;;;;;9.63;5.73;;;2.20;99.90;;;;;;5040553;28;20463;-53
2021/01/13 04:29:43;;;;;;;8.23;5.83;;;2.00;99.90;;;;;;5051937;28;20505;-52
2021/01/13 04:32:11;;;;;;;8.30;5.30;;;2.00;99.90;;;;;;5051858;28;20494;-53
2021/01/13 04:34:39;;;;;;;9.40;5.53;;;2.10;99.90;;;;;;5050663;28;20453;-52
2021/01/13 04:37:07;;;;;;;9.77;6.40;;;2.10;99.90;;;;;;5051327;28;20440;-52
2021/01/13 04:39:35;;;;;;;12.10;5.70;;;2.10;99.90;;;;;;5051523;28;20459;-52
2021/01/13 04:42:07;;;;;;;6.73;4.27;;;2.10;99.90;;;;;;5051733;28;20491;-52
2021/01/13 04:44:35;;;;;;;8.50;4.40;;;2.00;99.90;;;;;;5051093;28;20920;-53
2021/01/13 04:47:09;;;;;;;7.83;4.77;;;2.00;99.90;;;;;;5051705;28;20465;-53
2021/01/13 04:49:37;;;;;;;8.27;4.90;;;2.00;99.90;;;;;;5050909;28;20826;-52
2021/01/13 04:52:18;;;;;;;7.97;5.23;;;2.10;99.90;;;;;;5051489;28;20972;-52
2021/01/13 04:54:48;;;;;;;18.20;7.97;;;2.10;99.90;;;;;;5051459;28;20514;-52
2021/01/13 04:58:02;;;;;;;18.53;10.00;;;2.10;99.90;;;;;;5051803;28;20554;-52
2021/01/13 05:01:08;;;;;;;17.87;9.13;;;2.10;99.90;;;;;;5051593;28;20498;-52
2021/01/13 05:03:41;;;;;;;13.70;7.87;;;2.00;99.90;;;;;;5018243;28;20463;-52
2021/01/13 05:06:46;;;;;;;11.83;5.10;;;2.10;99.90;;;;;;5051496;28;20450;-52
2021/01/13 05:09:15;;;;;;;9.40;6.17;;;1.90;99.90;;;;;;5031446;28;20537;-52
2021/01/13 05:11:43;;;;;;;9.40;5.80;;;2.00;99.90;;;;;;5037589;28;20472;-52
2021/01/13 05:14:14;;;;;;;14.80;6.37;;;2.00;99.90;;;;;;5051280;28;20508;-52
2021/01/13 05:17:02;;;;;;;9.43;6.20;;;2.00;99.90;;;;;;5051229;28;20457;-52
2021/01/13 05:20:17;;;;;;;11.60;7.67;;;2.10;99.90;;;;;;5051150;28;20542;-52
2021/01/13 05:22:45;;;;;;;11.30;6.60;;;2.20;99.90;;;;;;5045990;28;20488;-52
2021/01/13 05:25:13;;;;;;;12.27;6.47;;;2.30;99.90;;;;;;5050680;28;20475;-52
2021/01/13 05:28:05;;;;;;;12.13;7.93;;;2.10;99.90;;;;;;5051052;28;20447;-52
2021/01/13 05:30:34;;;;;;;9.23;5.90;;;2.10;99.90;;;;;;5050721;28;20570;-52
2021/01/13 05:33:05;;;;;;;11.03;6.50;;;2.10;99.90;;;;;;5050758;28;20505;-52
2021/01/13 05:35:36;;;;;;;11.90;7.17;;;2.10;99.90;;;;;;5050408;28;20449;-52
2021/01/13 05:38:08;;;;;;;14.57;8.77;;;2.30;99.90;;;;;;5051083;28;21011;-51
2021/01/13 05:40:47;;;;;;;38.07;16.53;;;2.20;99.90;;;;;;5050532;28;20474;-51
2021/01/13 05:43:14;;;;;;;36.20;16.07;;;2.10;99.90;;;;;;5050372;28;20530;-51
2021/01/13 05:45:42;;;;;;;55.83;20.97;;;2.20;99.90;;;;;;5050037;28;20832;-51
2021/01/13 05:48:25;;;;;;;31.50;15.50;;;2.20;99.90;;;;;;5050631;28;20957;-52
2021/01/13 05:50:54;;;;;;;24.43;9.97;;;2.20;99.90;;;;;;5045231;28;20474;-52
2021/01/13 05:53:25;;;;;;;15.97;8.50;;;2.40;99.90;;;;;;5041957;28;20459;-51
2021/01/13 05:55:53;;;;;;;14.97;8.23;;;2.30;99.90;;;;;;5050439;28;20487;-51
2021/01/13 05:58:25;;;;;;;15.63;7.73;;;2.40;99.90;;;;;;5050101;28;20481;-51
2021/01/13 06:00:55;;;;;;;16.10;7.40;;;2.30;99.90;;;;;;5049677;28;20559;-51
2021/01/13 06:03:24;;;;;;;15.73;8.33;;;1.90;99.90;;;;;;5050337;28;20802;-51
2021/01/13 06:05:53;;;;;;;16.90;8.10;;;1.70;99.90;;;;;;5050740;28;20443;-51
2021/01/13 06:08:25;;;;;;;20.17;7.87;;;1.70;99.90;;;;;;5050043;28;20455;-51
2021/01/13 06:10:56;;;;;;;20.37;8.37;;;1.60;99.90;;;;;;5050150;28;20476;-51
2021/01/13 06:13:29;;;;;;;19.23;8.90;;;1.70;99.90;;;;;;5049302;28;20446;-51
2021/01/13 06:16:04;;;;;;;21.50;9.40;;;1.60;99.90;;;;;;5050467;28;20509;-50
2021/01/13 06:18:32;;;;;;;18.70;8.87;;;1.60;99.90;;;;;;5050653;28;20940;-50
2021/01/13 06:21:07;;;;;;;14.57;6.73;;;1.60;99.90;;;;;;5049340;28;20475;-50
2021/01/13 06:23:48;;;;;;;11.80;5.30;;;1.50;99.90;;;;;;5050307;28;20450;-51
2021/01/13 06:26:16;;;;;;;10.23;5.47;;;1.50;99.90;;;;;;5050392;28;20492;-51
2021/01/13 06:29:26;;;;;;;11.90;6.20;;;1.50;99.90;;;;;;5050176;28;20455;-51
2021/01/13 06:31:58;;;;;;;14.93;7.70;;;1.60;99.90;;;;;;5046455;28;20486;-51
2021/01/13 06:34:28;;;;;;;17.90;8.87;;;1.60;99.90;;;;;;5050449;28;20446;-51
2021/01/13 06:37:15;;;;;;;12.73;6.40;;;1.50;99.90;;;;;;5050304;28;20448;-51
2021/01/13 06:39:42;;;;;;;12.17;6.07;;;1.50;99.90;;;;;;5049476;28;20434;-50
2021/01/13 06:42:10;;;;;;;13.67;6.50;;;1.60;99.90;;;;;;5044928;28;20479;-51
2021/01/13 06:44:48;;;;;;;12.77;6.80;;;1.60;99.90;;;;;;5045333;28;20494;-51
2021/01/13 06:47:14;;;;;;;12.40;6.43;;;1.60;99.90;;;;;;5047372;28;20465;-52
2021/01/13 06:49:41;;;;;;;15.33;7.93;;;1.60;99.90;;;;;;5035203;28;20451;-51
2021/01/13 06:52:08;;;;;;;12.70;7.20;;;1.50;99.90;;;;;;5044861;28;20478;-51
2021/01/13 06:54:44;;;;;;;13.37;6.90;;;1.40;99.90;;;;;;5049631;28;20545;-51
2021/01/13 06:57:13;;;;;;;14.50;6.50;;;1.20;99.90;;;;;;5049839;28;20541;-51
2021/01/13 06:59:40;;;;;;;10.60;6.13;;;1.10;99.90;;;;;;5053730;28;20446;-51
2021/01/13 07:02:10;;;;;;;14.63;7.67;;;1.10;99.90;;;;;;5052955;28;20487;-51
2021/01/13 07:04:46;;;;;;;15.30;8.00;;;1.20;99.90;;;;;;5053745;28;20541;-52
2021/01/13 07:07:13;;;;;;;15.67;8.30;;;1.20;99.90;;;;;;5053754;28;20494;-51
2021/01/13 07:09:42;;;;;;;14.70;8.40;;;1.30;99.90;;;;;;5053331;28;20528;-52
2021/01/13 07:12:12;;;;;;;17.60;9.13;;;1.40;99.90;;;;;;5053637;28;20474;-52
2021/01/13 07:14:41;;;;;;;18.73;9.27;;;1.40;99.90;;;;;;5053387;28;20439;-51
2021/01/13 07:17:14;;;;;;;20.87;10.20;;;1.50;99.90;;;;;;5053555;28;20508;-52
2021/01/13 07:19:45;;;;;;;21.53;10.33;;;1.50;99.90;;;;;;5053438;28;20451;-52
2021/01/13 07:22:12;;;;;;;19.90;9.10;;;1.50;99.90;;;;;;5053032;28;20483;-52
2021/01/13 07:24:40;;;;;;;16.27;8.27;;;1.50;99.90;;;;;;5053295;28;20545;-52
2021/01/13 07:27:08;;;;;;;16.53;8.73;;;1.40;99.90;;;;;;5053036;28;20455;-52
2021/01/13 07:29:35;;;;;;;13.70;7.70;;;1.50;99.90;;;;;;5053081;28;20512;-52
2021/01/13 07:32:04;;;;;;;13.93;7.33;;;1.30;99.90;;;;;;5052639;28;20474;-52
2021/01/13 07:34:36;;;;;;;14.37;7.50;;;1.40;99.90;;;;;;5053164;28;20508;-52
2021/01/13 07:37:06;;;;;;;16.27;7.80;;;1.40;99.90;;;;;;5052817;28;20451;-52
2021/01/13 07:40:12;;;;;;;16.27;8.30;;;1.40;99.90;;;;;;5052798;28;21126;-52
2021/01/13 07:42:40;;;;;;;16.87;8.40;;;1.50;99.90;;;;;;5053056;28;20476;-52
2021/01/13 07:45:09;;;;;;;22.67;9.47;;;1.40;99.90;;;;;;5052896;28;20446;-52
2021/01/13 07:48:15;;;;;;;16.83;8.70;;;1.50;99.90;;;;;;5052861;28;20461;-52
2021/01/13 07:50:42;;;;;;;18.50;8.70;;;1.30;99.90;;;;;;5028659;28;20477;-52
2021/01/13 07:53:11;;;;;;;17.20;7.73;;;1.30;99.90;;;;;;5050387;28;20853;-51
2021/01/13 07:55:44;;;;;;;15.47;8.00;;;1.50;99.90;;;;;;5051276;28;20534;-52
2021/01/13 07:58:20;;;;;;;17.47;7.70;;;1.30;99.90;;;;;;5044914;28;20470;-52
2021/01/13 08:00:59;;;;;;;15.37;7.87;;;1.30;99.90;;;;;;5052620;28;20552;-52
2021/01/13 08:04:10;;;;;;;21.93;9.10;;;1.30;99.90;;;;;;5052511;28;20914;-52
2021/01/13 08:06:47;;;;;;;19.93;8.60;;;1.20;99.90;;;;;;5052664;28;20454;-52
2021/01/13 08:09:18;;;;;;;14.80;8.60;;;1.30;99.90;;;;;;5051042;28;20447;-51
2021/01/13 08:12:38;;;;;;;17.13;7.90;;;1.40;99.90;;;;;;5047580;28;20462;-52
2021/01/13 08:15:47;;;;;;;14.30;7.83;;;1.50;99.90;;;;;;5052447;28;20448;-52
2021/01/13 08:19:11;;;;;;;16.10;7.93;;;1.50;99.90;;;;;;5052774;28;20440;-52
2021/01/13 08:21:44;;;;;;;18.80;7.40;;;1.30;99.90;;;;;;5053343;28;20487;-51
2021/01/13 08:24:25;;;;;;;14.50;6.93;;;1.60;99.90;;;;;;5052350;28;20455;-52
2021/01/13 08:26:52;;;;;;;15.17;7.50;;;1.50;99.90;;;;;;5052115;28;20797;-52
2021/01/13 08:29:20;;;;;;;16.23;7.83;;;1.50;99.90;;;;;;5051757;28;20944;-52
2021/01/13 08:32:02;;;;;;;13.17;7.50;;;1.50;99.90;;;;;;5049406;28;20525;-52
2021/01/13 08:34:37;;;;;;;12.93;6.87;;;1.60;99.90;;;;;;5044141;28;20999;-51
2021/01/13 08:37:05;;;;;;;10.00;6.33;;;1.90;99.90;;;;;;5051323;28;20493;-52
2021/01/13 08:39:32;;;;;;;11.13;6.60;;;1.90;99.90;;;;;;5046664;28;20459;-52
2021/01/13 08:42:21;;;;;;;10.23;5.83;;;2.00;99.90;;;;;;5050939;28;20490;-52
2021/01/13 08:44:49;;;;;;;9.40;6.07;;;1.90;99.90;;;;;;5049928;28;20510;-52
2021/01/13 08:47:16;;;;;;;13.47;6.77;;;1.90;99.90;;;;;;5043464;28;20477;-52
2021/01/13 08:49:46;;;;;;;17.30;7.00;;;1.70;99.90;;;;;;5031549;28;20521;-52
2021/01/13 08:52:18;;;;;;;12.43;6.77;;;1.80;99.90;;;;;;5043458;28;20468;-51
2021/01/13 08:55:12;;;;;;;17.00;6.93;;;1.90;99.90;;;;;;5052073;28;20447;-51
2021/01/13 08:58:01;;;;;;;12.07;5.67;;;1.90;99.90;;;;;;5036146;28;20463;-52
2021/01/13 09:00:29;;;;;;;9.97;5.40;;;2.10;99.90;;;;;;5032996;28;20472;-51
2021/01/13 09:03:11;;;;;;;10.77;5.10;;;2.10;99.90;;;;;;5049323;28;21063;-51
2021/01/13 09:05:40;;;;;;;23.27;7.43;;;2.10;99.90;;;;;;5030928;28;20454;-51
2021/01/13 09:08:09;;;;;;;8.20;4.20;;;2.00;99.90;;;;;;5047265;28;20630;-52
2021/01/13 09:10:51;;;;;;;6.70;4.07;;;2.10;99.90;;;;;;5051051;28;20479;-52
2021/01/13 09:13:41;;;;;;;5.87;4.10;;;2.10;99.90;;;;;;5038543;28;20988;-52
2021/01/13 09:16:32;;;;;;;7.03;4.10;;;2.10;99.90;;;;;;5051331;28;20486;-52
2021/01/13 09:19:01;;;;;;;7.30;4.67;;;2.20;99.90;;;;;;5044940;28;20482;-51
2021/01/13 09:21:31;;;;;;;8.20;4.57;;;2.30;99.90;;;;;;5051261;28;20463;-52
2021/01/13 09:23:58;;;;;;;7.63;4.23;;;2.40;99.90;;;;;;5051507;28;20469;-52
2021/01/13 09:26:32;;;;;;;7.97;4.97;;;2.60;99.90;;;;;;5051156;28;20448;-51
2021/01/13 09:29:12;;;;;;;9.70;7.83;;;2.80;99.90;;;;;;5050839;28;20506;-51
2021/01/13 09:31:40;;;;;;;8.60;4.93;;;2.80;99.90;;;;;;5050713;28;20575;-52
2021/01/13 09:34:08;;;;;;;7.80;4.90;;;2.90;99.90;;;;;;5050303;28;20537;-51
2021/01/13 09:36:58;;;;;;;10.13;5.03;;;3.10;99.90;;;;;;5050521;28;20473;-52
2021/01/13 09:39:33;;;;;;;8.27;5.40;;;3.20;99.90;;;;;;5045032;28;20526;-52
2021/01/13 09:42:01;;;;;;;8.90;5.40;;;3.20;99.90;;;;;;5044259;28;20533;-52
2021/01/13 09:44:30;;;;;;;13.63;5.93;;;3.20;99.90;;;;;;5031063;28;20448;-52
2021/01/13 09:46:57;;;;;;;10.07;6.07;;;3.20;99.90;;;;;;5034633;28;20484;-52
2021/01/13 09:49:25;;;;;;;13.07;6.73;;;3.40;99.90;;;;;;5048566;28;20460;-52
2021/01/13 09:51:52;;;;;;;11.20;6.17;;;3.00;99.90;;;;;;5047522;28;20475;-52
2021/01/13 09:54:24;;;;;;;11.07;6.17;;;2.90;99.90;;;;;;5044737;28;20452;-52
2021/01/13 09:56:57;;;;;;;10.13;6.67;;;3.00;99.90;;;;;;5046760;28;20509;-52
2021/01/13 09:59:27;;;;;;;10.90;6.77;;;3.00;99.90;;;;;;5050678;28;20458;-52
2021/01/13 10:01:58;;;;;;;12.67;6.77;;;3.10;99.90;;;;;;5050880;28;20483;-52
2021/01/13 10:04:24;;;;;;;13.03;8.23;;;3.30;99.90;;;;;;5050386;28;20534;-52
2021/01/13 10:07:01;;;;;;;13.13;6.47;;;3.40;99.90;;;;;;5049803;28;20444;-52
2021/01/13 10:09:30;;;;;;;12.73;7.23;;;3.50;99.90;;;;;;5039269;28;20452;-52
2021/01/13 10:11:57;;;;;;;14.77;7.97;;;3.30;99.90;;;;;;5050384;28;20571;-52
2021/01/13 10:14:23;;;;;;;15.17;7.40;;;3.30;99.90;;;;;;5050550;28;20451;-52
2021/01/13 10:16:50;;;;;;;12.97;6.90;;;3.50;99.90;;;;;;5050666;28;20447;-52
2021/01/13 10:19:19;;;;;;;16.27;8.37;;;3.70;99.90;;;;;;5049590;28;20455;-52
2021/01/13 10:21:48;;;;;;;9.70;5.53;;;3.40;99.90;;;;;;5049594;28;21058;-52
2021/01/13 10:24:20;;;;;;;9.60;5.03;;;3.40;99.90;;;;;;5049147;28;20614;-51
2021/01/13 10:26:50;;;;;;;10.17;4.33;;;3.50;99.90;;;;;;5049853;28;20448;-52
2021/01/13 10:29:22;;;;;;;8.57;5.00;;;3.50;99.90;;;;;;5049718;28;20448;-52
2021/01/13 10:31:50;;;;;;;9.63;5.20;;;3.60;99.90;;;;;;5033194;28;20476;-52
2021/01/13 10:34:17;;;;;;;7.03;4.80;;;3.70;99.90;;;;;;5037531;28;20535;-51
2021/01/13 10:36:45;;;;;;;6.60;4.70;;;3.90;99.90;;;;;;5053828;28;20452;-52
2021/01/13 10:39:22;;;;;;;10.07;5.00;;;4.00;99.90;;;;;;5034871;28;20467;-52
2021/01/13 10:41:51;;;;;;;6.23;3.97;;;4.10;99.90;;;;;;5048319;28;20480;-51
2021/01/13 10:44:19;;;;;;;6.43;4.13;;;4.20;99.90;;;;;;5053172;28;20485;-50
2021/01/13 10:46:57;;;;;;;7.13;4.30;;;4.30;99.90;;;;;;5053891;28;20443;-51
2021/01/13 10:49:30;;;;;;;8.17;4.70;;;4.40;99.90;;;;;;5053649;28;20455;-51
2021/01/13 10:51:58;;;;;;;16.63;7.07;;;4.50;99.90;;;;;;5053433;28;21007;-51
2021/01/13 10:54:26;;;;;;;13.17;6.00;;;4.60;99.90;;;;;;5053274;28;20677;-52
2021/01/13 10:56:56;;;;;;;9.57;5.13;;;4.60;99.90;;;;;;5053311;28;20455;-51
2021/01/13 10:59:23;;;;;;;8.70;5.00;;;4.50;99.90;;;;;;5053842;28;20447;-51
2021/01/13 11:01:52;;;;;;;7.47;4.50;;;4.60;99.90;;;;;;5053483;28;20479;-51
2021/01/13 11:04:27;;;;;;;6.70;4.23;;;4.60;99.90;;;;;;5053271;28;20447;-52
2021/01/13 11:06:59;;;;;;;6.23;3.60;;;4.60;99.90;;;;;;5053598;28;20454;-51
2021/01/13 11:09:26;;;;;;;7.43;4.60;;;4.60;99.90;;;;;;5052590;28;20980;-52
2021/01/13 11:11:55;;;;;;;10.10;5.40;;;4.70;99.90;;;;;;5052969;28;20800;-51
2021/01/13 11:14:46;;;;;;;12.43;6.93;;;4.80;99.90;;;;;;5053136;28;20547;-52
2021/01/13 11:17:16;;;;;;;10.80;6.67;;;5.10;99.90;;;;;;5036779;28;20450;-52
2021/01/13 11:19:50;;;;;;;9.93;6.47;;;5.20;99.90;;;;;;5053052;28;20461;-52
2021/01/13 11:22:17;;;;;;;10.63;5.50;;;5.40;99.90;;;;;;5053027;28;20488;-52
2021/01/13 11:24:46;;;;;;;7.60;4.90;;;5.40;99.90;;;;;;5054166;28;20511;-51
2021/01/13 11:27:18;;;;;;;9.57;5.23;;;5.30;99.90;;;;;;5055603;28;20949;-52
2021/01/13 11:29:46;;;;;;;9.63;4.50;;;5.20;99.90;;;;;;5055669;28;20928;-52
2021/01/13 11:32:16;;;;;;;8.40;4.70;;;4.90;99.90;;;;;;5055239;28;20476;-53
2021/01/13 11:34:48;;;;;;;7.13;4.37;;;4.80;99.90;;;;;;5055146;28;20950;-53
2021/01/13 11:37:21;;;;;;;12.20;5.90;;;4.90;99.90;;;;;;5055388;28;21008;-53
2021/01/13 11:40:01;;;;;;;12.57;5.37;;;5.10;99.90;;;;;;5054122;28;20505;-53
2021/01/13 11:42:48;;;;;;;9.23;4.40;;;5.30;99.90;;;;;;5055891;28;20479;-53
2021/01/13 11:45:20;;;;;;;8.27;3.50;;;5.50;99.90;;;;;;5056041;28;20448;-53
2021/01/13 11:47:51;;;;;;;5.90;3.93;;;5.70;99.90;;;;;;5055953;28;20826;-53
2021/01/13 11:50:22;;;;;;;6.60;3.83;;;5.70;99.90;;;;;;5055615;28;20467;-53
2021/01/13 11:52:54;;;;;;;8.27;4.07;;;5.70;99.90;;;;;;5054860;28;20877;-52
2021/01/13 11:55:27;;;;;;;5.80;4.27;;;5.60;99.90;;;;;;5033168;28;20452;-53
2021/01/13 11:57:54;;;;;;;11.97;4.10;;;5.80;99.90;;;;;;5039962;28;20452;-53
2021/01/13 12:00:23;;;;;;;6.47;3.77;;;5.90;99.90;;;;;;5052177;28;20477;-53
2021/01/13 12:02:51;;;;;;;9.10;4.23;;;6.00;99.90;;;;;;5052210;28;20514;-53
2021/01/13 12:05:27;;;;;;;7.53;4.90;;;5.90;99.90;;;;;;5052076;28;20841;-53
2021/01/13 12:08:01;;;;;;;14.77;5.30;;;5.60;99.90;;;;;;5051670;28;20538;-53
2021/01/13 12:10:33;;;;;;;12.40;5.53;;;5.80;99.90;;;;;;5051349;28;20464;-52
2021/01/13 12:13:19;;;;;;;16.53;7.27;;;5.70;99.90;;;;;;5051556;28;20522;-53
2021/01/13 12:15:56;;;;;;;10.40;4.93;;;5.70;99.90;;;;;;5052220;28;20455;-52
2021/01/13 12:18:24;;;;;;;7.90;4.63;;;5.50;99.90;;;;;;5052206;28;20780;-52
2021/01/13 12:20:52;;;;;;;11.27;5.07;;;5.40;99.90;;;;;;5051811;28;20873;-52
2021/01/13 12:23:21;;;;;;;6.90;4.10;;;5.40;99.90;;;;;;5051594;28;20483;-52
2021/01/13 12:25:49;;;;;;;8.17;4.80;;;5.40;99.90;;;;;;5051871;28;20821;-52
2021/01/13 12:28:16;;;;;;;6.80;3.73;;;5.60;99.90;;;;;;5051725;28;20854;-53
2021/01/13 12:30:55;;;;;;;7.90;4.70;;;5.60;99.90;;;;;;5051508;28;20478;-53
2021/01/13 12:33:21;;;;;;;7.67;4.70;;;5.60;99.90;;;;;;5051694;28;20484;-52
2021/01/13 12:35:48;;;;;;;5.60;3.63;;;5.60;99.90;;;;;;5051767;28;20475;-51
2021/01/13 12:38:15;;;;;;;9.53;6.03;;;5.40;99.90;;;;;;5051550;28;20955;-50
2021/01/13 12:40:42;;;;;;;14.13;8.57;;;5.20;99.90;;;;;;5051316;28;20475;-51
2021/01/13 12:43:16;;;;;;;10.93;6.23;;;5.30;99.90;;;;;;5051031;28;20533;-51
2021/01/13 12:45:43;;;;;;;38.57;13.63;;;5.30;99.90;;;;;;5051696;28;20497;-51
2021/01/13 12:48:11;;;;;;;18.83;9.13;;;5.30;99.90;;;;;;5051708;28;20476;-50
2021/01/13 12:50:38;;;;;;;23.60;9.73;;;5.10;99.90;;;;;;5051140;28;20476;-50
2021/01/13 12:53:05;;;;;;;17.67;7.97;;;5.10;99.90;;;;;;5051156;28;20474;-50
2021/01/13 12:55:32;;;;;;;13.33;7.27;;;4.90;99.90;;;;;;5050473;28;20452;-51
2021/01/13 12:57:58;;;;;;;13.17;6.80;;;4.90;99.90;;;;;;5051348;28;20448;-50
2021/01/13 13:00:26;;;;;;;36.67;15.43;;;4.80;99.90;;;;;;5050942;28;20471;-50
2021/01/13 13:02:53;;;;;;;32.90;13.33;;;4.90;99.90;;;;;;5046340;28;20507;-51
2021/01/13 13:05:21;;;;;;;33.47;14.77;;;5.00;99.90;;;;;;5047095;28;20538;-50
2021/01/13 13:07:47;;;;;;;25.20;12.30;;;5.10;99.90;;;;;;5050625;28;20448;-50
2021/01/13 13:10:14;;;;;;;30.97;12.87;;;5.20;99.90;;;;;;5050210;28;20468;-50
2021/01/13 13:12:41;;;;;;;22.60;10.67;;;5.30;99.90;;;;;;5050492;28;20451;-50
2021/01/13 13:15:08;;;;;;;32.63;14.60;;;5.40;99.90;;;;;;5050723;28;20456;-50
2021/01/13 13:17:38;;;;;;;19.00;9.77;;;5.50;99.90;;;;;;5050785;28;20905;-50